Lyman, Washington
Current Conditions -  °F | °C
As of 6:35 PM on Friday 21 Nov 2014 (Local Time) from KBVS Reporting Station
Overcast Overcast  
Wind Chill: 46°   Ceiling: 2000
Heat Index: 48°   Visibility: 10mi
Dew Point: 48°   Wind: 6mph
Humidity: 100%   Direction: 120°ESE
Pressure: 29.3"   Gusts: NA
Location:  48.53°N, 122.06°W
Report Text: KBVS 220235Z AUTO 12005KT 10SM OVC020 09/09 A2930 RMK A01 P002
Loading
Personal Weather Stations






























Interactive Weather Map New forecast layout! Learn more

10-Day Weather Forecast

Advertisements
Track Severe Weather on mobile